sensor_id;sensor_type;location;lat;lon;timestamp;pressure;altitude;pressure_sealevel;temperature
20092;BMP180;10205;49.678;6.560;2024-01-15T00:00:42;99098.00;;;2.80
20092;BMP180;10205;49.678;6.560;2024-01-15T00:03:09;99087.00;;;2.80
20092;BMP180;10205;49.678;6.560;2024-01-15T00:05:37;99090.00;;;2.80
20092;BMP180;10205;49.678;6.560;2024-01-15T00:08:04;99096.00;;;2.80
20092;BMP180;10205;49.678;6.560;2024-01-15T00:10:31;99097.00;;;2.80
20092;BMP180;10205;49.678;6.560;2024-01-15T00:12:58;99086.00;;;2.80
20092;BMP180;10205;49.678;6.560;2024-01-15T00:15:27;99084.00;;;2.80
20092;BMP180;10205;49.678;6.560;2024-01-15T00:17:56;99066.00;;;2.80
20092;BMP180;10205;49.678;6.560;2024-01-15T00:20:23;99088.00;;;2.70
20092;BMP180;10205;49.678;6.560;2024-01-15T00:22:50;99065.00;;;2.70
20092;BMP180;10205;49.678;6.560;2024-01-15T00:25:17;99062.00;;;2.70
20092;BMP180;10205;49.678;6.560;2024-01-15T00:27:44;99078.00;;;2.80
20092;BMP180;10205;49.678;6.560;2024-01-15T00:30:13;99070.00;;;2.80
20092;BMP180;10205;49.678;6.560;2024-01-15T00:32:41;99074.00;;;2.80
20092;BMP180;10205;49.678;6.560;2024-01-15T00:35:09;99060.00;;;2.80
20092;BMP180;10205;49.678;6.560;2024-01-15T00:37:36;99057.00;;;2.80
20092;BMP180;10205;49.678;6.560;2024-01-15T00:40:05;99040.00;;;2.80
20092;BMP180;10205;49.678;6.560;2024-01-15T00:42:33;99048.00;;;2.80
20092;BMP180;10205;49.678;6.560;2024-01-15T00:45:00;99044.00;;;2.80
20092;BMP180;10205;49.678;6.560;2024-01-15T00:47:27;99043.00;;;2.80
20092;BMP180;10205;49.678;6.560;2024-01-15T00:49:56;99044.00;;;2.80
20092;BMP180;10205;49.678;6.560;2024-01-15T00:52:23;99053.00;;;2.80
20092;BMP180;10205;49.678;6.560;2024-01-15T00:54:50;99054.00;;;2.80
20092;BMP180;10205;49.678;6.560;2024-01-15T00:57:17;99052.00;;;2.80
20092;BMP180;10205;49.678;6.560;2024-01-15T00:59:44;99050.00;;;2.80
20092;BMP180;10205;49.678;6.560;2024-01-15T01:02:12;99052.00;;;2.70
20092;BMP180;10205;49.678;6.560;2024-01-15T01:04:39;99047.00;;;2.70
20092;BMP180;10205;49.678;6.560;2024-01-15T01:07:08;99031.00;;;2.80
20092;BMP180;10205;49.678;6.560;2024-01-15T01:09:35;99034.00;;;2.80
20092;BMP180;10205;49.678;6.560;2024-01-15T01:12:03;99031.00;;;2.80
20092;BMP180;10205;49.678;6.560;2024-01-15T01:14:30;99027.00;;;2.80
20092;BMP180;10205;49.678;6.560;2024-01-15T01:16:57;99020.00;;;2.80
20092;BMP180;10205;49.678;6.560;2024-01-15T01:19:24;99016.00;;;2.80
20092;BMP180;10205;49.678;6.560;2024-01-15T01:21:52;99015.00;;;2.80
20092;BMP180;10205;49.678;6.560;2024-01-15T01:24:20;99023.00;;;2.80
20092;BMP180;10205;49.678;6.560;2024-01-15T01:26:47;99036.00;;;2.80
20092;BMP180;10205;49.678;6.560;2024-01-15T01:29:14;99011.00;;;2.80
20092;BMP180;10205;49.678;6.560;2024-01-15T01:31:43;99020.00;;;2.80
20092;BMP180;10205;49.678;6.560;2024-01-15T01:34:13;99008.00;;;2.80
20092;BMP180;10205;49.678;6.560;2024-01-15T01:36:40;99010.00;;;2.80
20092;BMP180;10205;49.678;6.560;2024-01-15T01:39:07;98994.00;;;2.80
20092;BMP180;10205;49.678;6.560;2024-01-15T01:41:38;99000.00;;;2.90
20092;BMP180;10205;49.678;6.560;2024-01-15T01:44:05;99002.00;;;2.80
20092;BMP180;10205;49.678;6.560;2024-01-15T01:46:34;99002.00;;;2.80
20092;BMP180;10205;49.678;6.560;2024-01-15T01:49:05;99004.00;;;2.80
20092;BMP180;10205;49.678;6.560;2024-01-15T01:51:34;98998.00;;;2.80
20092;BMP180;10205;49.678;6.560;2024-01-15T01:54:04;99006.00;;;2.80
20092;BMP180;10205;49.678;6.560;2024-01-15T01:56:32;99001.00;;;2.80
20092;BMP180;10205;49.678;6.560;2024-01-15T01:59:02;98995.00;;;2.80
20092;BMP180;10205;49.678;6.560;2024-01-15T02:01:31;99007.00;;;2.80
20092;BMP180;10205;49.678;6.560;2024-01-15T02:03:59;98972.00;;;2.90
20092;BMP180;10205;49.678;6.560;2024-01-15T02:06:26;98961.00;;;2.90
20092;BMP180;10205;49.678;6.560;2024-01-15T02:08:54;98993.00;;;2.90
20092;BMP180;10205;49.678;6.560;2024-01-15T02:11:21;98977.00;;;2.90
20092;BMP180;10205;49.678;6.560;2024-01-15T02:13:48;98994.00;;;2.90
20092;BMP180;10205;49.678;6.560;2024-01-15T02:16:17;98987.00;;;2.90
20092;BMP180;10205;49.678;6.560;2024-01-15T02:18:46;98987.00;;;2.90
20092;BMP180;10205;49.678;6.560;2024-01-15T02:21:13;98982.00;;;2.90
20092;BMP180;10205;49.678;6.560;2024-01-15T02:23:41;98973.00;;;2.90
20092;BMP180;10205;49.678;6.560;2024-01-15T02:26:09;98982.00;;;2.90
20092;BMP180;10205;49.678;6.560;2024-01-15T02:28:36;98973.00;;;2.90
20092;BMP180;10205;49.678;6.560;2024-01-15T02:31:03;98997.00;;;2.90
20092;BMP180;10205;49.678;6.560;2024-01-15T02:33:30;98988.00;;;2.90
20092;BMP180;10205;49.678;6.560;2024-01-15T02:35:58;98986.00;;;2.90
20092;BMP180;10205;49.678;6.560;2024-01-15T02:38:25;98980.00;;;2.90
20092;BMP180;10205;49.678;6.560;2024-01-15T02:40:53;98981.00;;;2.90
20092;BMP180;10205;49.678;6.560;2024-01-15T02:43:20;98986.00;;;2.90
20092;BMP180;10205;49.678;6.560;2024-01-15T02:45:47;98995.00;;;2.90
20092;BMP180;10205;49.678;6.560;2024-01-15T02:48:14;98979.00;;;2.90
20092;BMP180;10205;49.678;6.560;2024-01-15T02:50:42;98993.00;;;2.90
20092;BMP180;10205;49.678;6.560;2024-01-15T02:53:09;98993.00;;;2.90
20092;BMP180;10205;49.678;6.560;2024-01-15T02:55:36;98978.00;;;2.90
20092;BMP180;10205;49.678;6.560;2024-01-15T02:58:05;98979.00;;;2.90
20092;BMP180;10205;49.678;6.560;2024-01-15T03:00:32;98974.00;;;2.90
20092;BMP180;10205;49.678;6.560;2024-01-15T03:02:59;98959.00;;;2.90
20092;BMP180;10205;49.678;6.560;2024-01-15T03:05:26;98959.00;;;3.00
20092;BMP180;10205;49.678;6.560;2024-01-15T03:07:53;98986.00;;;3.00
20092;BMP180;10205;49.678;6.560;2024-01-15T03:10:20;98973.00;;;3.00
20092;BMP180;10205;49.678;6.560;2024-01-15T03:12:47;98973.00;;;3.00
20092;BMP180;10205;49.678;6.560;2024-01-15T03:15:16;98983.00;;;3.00
20092;BMP180;10205;49.678;6.560;2024-01-15T03:17:44;98982.00;;;3.00
20092;BMP180;10205;49.678;6.560;2024-01-15T03:20:12;98975.00;;;3.00
20092;BMP180;10205;49.678;6.560;2024-01-15T03:22:39;98977.00;;;3.00
20092;BMP180;10205;49.678;6.560;2024-01-15T03:25:07;98967.00;;;3.00
20092;BMP180;10205;49.678;6.560;2024-01-15T03:27:34;98973.00;;;3.00
20092;BMP180;10205;49.678;6.560;2024-01-15T03:30:01;98948.00;;;3.10
20092;BMP180;10205;49.678;6.560;2024-01-15T03:32:30;98952.00;;;3.10
20092;BMP180;10205;49.678;6.560;2024-01-15T03:34:57;98958.00;;;3.10
20092;BMP180;10205;49.678;6.560;2024-01-15T03:37:24;98951.00;;;3.10
20092;BMP180;10205;49.678;6.560;2024-01-15T03:39:51;98954.00;;;3.10
20092;BMP180;10205;49.678;6.560;2024-01-15T03:42:18;98951.00;;;3.10
20092;BMP180;10205;49.678;6.560;2024-01-15T03:44:45;98949.00;;;3.10
20092;BMP180;10205;49.678;6.560;2024-01-15T03:47:13;98943.00;;;3.10
20092;BMP180;10205;49.678;6.560;2024-01-15T03:49:41;98929.00;;;3.10
20092;BMP180;10205;49.678;6.560;2024-01-15T03:52:08;98925.00;;;3.10
20092;BMP180;10205;49.678;6.560;2024-01-15T03:54:35;98946.00;;;3.10
20092;BMP180;10205;49.678;6.560;2024-01-15T03:57:04;98915.00;;;3.10
20092;BMP180;10205;49.678;6.560;2024-01-15T03:59:31;98916.00;;;3.10
20092;BMP180;10205;49.678;6.560;2024-01-15T04:01:58;98901.00;;;3.10
20092;BMP180;10205;49.678;6.560;2024-01-15T04:04:25;98907.00;;;3.10
20092;BMP180;10205;49.678;6.560;2024-01-15T04:06:53;98910.00;;;3.10
20092;BMP180;10205;49.678;6.560;2024-01-15T04:09:20;98899.00;;;3.10
20092;BMP180;10205;49.678;6.560;2024-01-15T04:11:48;98907.00;;;3.10
20092;BMP180;10205;49.678;6.560;2024-01-15T04:14:15;98910.00;;;3.10
20092;BMP180;10205;49.678;6.560;2024-01-15T04:16:42;98905.00;;;3.10
20092;BMP180;10205;49.678;6.560;2024-01-15T04:19:09;98912.00;;;3.10
20092;BMP180;10205;49.678;6.560;2024-01-15T04:21:36;98911.00;;;3.10
20092;BMP180;10205;49.678;6.560;2024-01-15T04:24:06;98916.00;;;3.10
20092;BMP180;10205;49.678;6.560;2024-01-15T04:26:33;98913.00;;;3.10
20092;BMP180;10205;49.678;6.560;2024-01-15T04:29:00;98901.00;;;3.20
20092;BMP180;10205;49.678;6.560;2024-01-15T04:31:27;98890.00;;;3.20
20092;BMP180;10205;49.678;6.560;2024-01-15T04:33:54;98884.00;;;3.20
20092;BMP180;10205;49.678;6.560;2024-01-15T04:36:21;98896.00;;;3.20
20092;BMP180;10205;49.678;6.560;2024-01-15T04:38:48;98887.00;;;3.20
20092;BMP180;10205;49.678;6.560;2024-01-15T04:41:17;98889.00;;;3.20
20092;BMP180;10205;49.678;6.560;2024-01-15T04:43:44;98862.00;;;3.20
20092;BMP180;10205;49.678;6.560;2024-01-15T04:46:11;98882.00;;;3.20
20092;BMP180;10205;49.678;6.560;2024-01-15T04:48:38;98867.00;;;3.20
20092;BMP180;10205;49.678;6.560;2024-01-15T04:51:08;98863.00;;;3.20
20092;BMP180;10205;49.678;6.560;2024-01-15T04:53:35;98867.00;;;3.20
20092;BMP180;10205;49.678;6.560;2024-01-15T04:56:03;98867.00;;;3.20
20092;BMP180;10205;49.678;6.560;2024-01-15T04:58:31;98867.00;;;3.20
20092;BMP180;10205;49.678;6.560;2024-01-15T05:00:58;98876.00;;;3.20
20092;BMP180;10205;49.678;6.560;2024-01-15T05:03:25;98875.00;;;3.20
20092;BMP180;10205;49.678;6.560;2024-01-15T05:05:52;98857.00;;;3.10
20092;BMP180;10205;49.678;6.560;2024-01-15T05:08:20;98863.00;;;3.20
20092;BMP180;10205;49.678;6.560;2024-01-15T05:10:47;98861.00;;;3.20
20092;BMP180;10205;49.678;6.560;2024-01-15T05:13:14;98850.00;;;3.20
20092;BMP180;10205;49.678;6.560;2024-01-15T05:15:43;98861.00;;;3.20
20092;BMP180;10205;49.678;6.560;2024-01-15T05:18:10;98850.00;;;3.20
20092;BMP180;10205;49.678;6.560;2024-01-15T05:20:37;98857.00;;;3.20
20092;BMP180;10205;49.678;6.560;2024-01-15T05:23:04;98853.00;;;3.20
20092;BMP180;10205;49.678;6.560;2024-01-15T05:25:31;98842.00;;;3.20
20092;BMP180;10205;49.678;6.560;2024-01-15T05:27:58;98840.00;;;3.20
20092;BMP180;10205;49.678;6.560;2024-01-15T05:30:25;98833.00;;;3.20
20092;BMP180;10205;49.678;6.560;2024-01-15T05:32:53;98837.00;;;3.20
20092;BMP180;10205;49.678;6.560;2024-01-15T05:35:21;98826.00;;;3.20
20092;BMP180;10205;49.678;6.560;2024-01-15T05:37:48;98826.00;;;3.20
20092;BMP180;10205;49.678;6.560;2024-01-15T05:40:15;98816.00;;;3.30
20092;BMP180;10205;49.678;6.560;2024-01-15T05:42:42;98825.00;;;3.30
20092;BMP180;10205;49.678;6.560;2024-01-15T05:45:09;98831.00;;;3.30
20092;BMP180;10205;49.678;6.560;2024-01-15T05:47:36;98822.00;;;3.20
20092;BMP180;10205;49.678;6.560;2024-01-15T05:50:05;98807.00;;;3.30
20092;BMP180;10205;49.678;6.560;2024-01-15T05:52:33;98819.00;;;3.30
20092;BMP180;10205;49.678;6.560;2024-01-15T05:55:00;98814.00;;;3.30
20092;BMP180;10205;49.678;6.560;2024-01-15T05:57:28;98810.00;;;3.30
20092;BMP180;10205;49.678;6.560;2024-01-15T05:59:56;98811.00;;;3.30
20092;BMP180;10205;49.678;6.560;2024-01-15T06:02:23;98811.00;;;3.30
20092;BMP180;10205;49.678;6.560;2024-01-15T06:04:50;98807.00;;;3.30
20092;BMP180;10205;49.678;6.560;2024-01-15T06:07:18;98827.00;;;3.30
20092;BMP180;10205;49.678;6.560;2024-01-15T06:09:46;98815.00;;;3.30
20092;BMP180;10205;49.678;6.560;2024-01-15T06:12:13;98821.00;;;3.30
20092;BMP180;10205;49.678;6.560;2024-01-15T06:14:40;98816.00;;;3.30
20092;BMP180;10205;49.678;6.560;2024-01-15T06:17:08;98816.00;;;3.30
20092;BMP180;10205;49.678;6.560;2024-01-15T06:19:35;98816.00;;;3.30
20092;BMP180;10205;49.678;6.560;2024-01-15T06:22:02;98820.00;;;3.30
20092;BMP180;10205;49.678;6.560;2024-01-15T06:24:31;98814.00;;;3.30
20092;BMP180;10205;49.678;6.560;2024-01-15T06:26:58;98812.00;;;3.30
20092;BMP180;10205;49.678;6.560;2024-01-15T06:29:26;98812.00;;;3.30
20092;BMP180;10205;49.678;6.560;2024-01-15T06:31:53;98803.00;;;3.30
20092;BMP180;10205;49.678;6.560;2024-01-15T06:34:20;98795.00;;;3.30
20092;BMP180;10205;49.678;6.560;2024-01-15T06:36:47;98819.00;;;3.30
20092;BMP180;10205;49.678;6.560;2024-01-15T06:39:15;98805.00;;;3.30
20092;BMP180;10205;49.678;6.560;2024-01-15T06:41:43;98796.00;;;3.30
20092;BMP180;10205;49.678;6.560;2024-01-15T06:44:10;98794.00;;;3.30
20092;BMP180;10205;49.678;6.560;2024-01-15T06:46:42;98796.00;;;3.30
20092;BMP180;10205;49.678;6.560;2024-01-15T06:49:09;98791.00;;;3.30
20092;BMP180;10205;49.678;6.560;2024-01-15T06:51:37;98796.00;;;3.30
20092;BMP180;10205;49.678;6.560;2024-01-15T06:54:05;98787.00;;;3.40
20092;BMP180;10205;49.678;6.560;2024-01-15T06:56:32;98787.00;;;3.30
20092;BMP180;10205;49.678;6.560;2024-01-15T06:59:01;98762.00;;;3.30
20092;BMP180;10205;49.678;6.560;2024-01-15T07:01:29;98785.00;;;3.30
20092;BMP180;10205;49.678;6.560;2024-01-15T07:03:56;98785.00;;;3.30
20092;BMP180;10205;49.678;6.560;2024-01-15T07:06:23;98795.00;;;3.40
20092;BMP180;10205;49.678;6.560;2024-01-15T07:08:50;98787.00;;;3.30
20092;BMP180;10205;49.678;6.560;2024-01-15T07:11:17;98797.00;;;3.40
20092;BMP180;10205;49.678;6.560;2024-01-15T07:13:44;98785.00;;;3.40
20092;BMP180;10205;49.678;6.560;2024-01-15T07:16:13;98797.00;;;3.40
20092;BMP180;10205;49.678;6.560;2024-01-15T07:18:40;98792.00;;;3.40
20092;BMP180;10205;49.678;6.560;2024-01-15T07:21:07;98800.00;;;3.40
20092;BMP180;10205;49.678;6.560;2024-01-15T07:23:35;98800.00;;;3.40
20092;BMP180;10205;49.678;6.560;2024-01-15T07:26:02;98801.00;;;3.40
20092;BMP180;10205;49.678;6.560;2024-01-15T07:28:31;98794.00;;;3.40
20092;BMP180;10205;49.678;6.560;2024-01-15T07:30:58;98794.00;;;3.40
20092;BMP180;10205;49.678;6.560;2024-01-15T07:33:26;98791.00;;;3.40
20092;BMP180;10205;49.678;6.560;2024-01-15T07:35:53;98795.00;;;3.40
20092;BMP180;10205;49.678;6.560;2024-01-15T07:38:20;98778.00;;;3.40
20092;BMP180;10205;49.678;6.560;2024-01-15T07:40:48;98785.00;;;3.40
20092;BMP180;10205;49.678;6.560;2024-01-15T07:43:15;98784.00;;;3.40
20092;BMP180;10205;49.678;6.560;2024-01-15T07:45:42;98802.00;;;3.50
20092;BMP180;10205;49.678;6.560;2024-01-15T07:48:11;98800.00;;;3.40
20092;BMP180;10205;49.678;6.560;2024-01-15T07:50:39;98803.00;;;3.50
20092;BMP180;10205;49.678;6.560;2024-01-15T07:53:06;98803.00;;;3.50
20092;BMP180;10205;49.678;6.560;2024-01-15T07:55:33;98801.00;;;3.50
20092;BMP180;10205;49.678;6.560;2024-01-15T07:58:00;98797.00;;;3.50
20092;BMP180;10205;49.678;6.560;2024-01-15T08:00:27;98801.00;;;3.50
20092;BMP180;10205;49.678;6.560;2024-01-15T08:02:54;98802.00;;;3.50
20092;BMP180;10205;49.678;6.560;2024-01-15T08:05:21;98799.00;;;3.50
20092;BMP180;10205;49.678;6.560;2024-01-15T08:07:50;98807.00;;;3.50
20092;BMP180;10205;49.678;6.560;2024-01-15T08:10:17;98795.00;;;3.50
20092;BMP180;10205;49.678;6.560;2024-01-15T08:12:44;98809.00;;;3.50
20092;BMP180;10205;49.678;6.560;2024-01-15T08:15:11;98795.00;;;3.50
20092;BMP180;10205;49.678;6.560;2024-01-15T08:17:39;98804.00;;;3.50
20092;BMP180;10205;49.678;6.560;2024-01-15T08:20:07;98817.00;;;3.50
20092;BMP180;10205;49.678;6.560;2024-01-15T08:22:34;98811.00;;;3.50
20092;BMP180;10205;49.678;6.560;2024-01-15T08:25:03;98806.00;;;3.50
20092;BMP180;10205;49.678;6.560;2024-01-15T08:27:30;98781.00;;;3.60
20092;BMP180;10205;49.678;6.560;2024-01-15T08:29:57;98807.00;;;3.60
20092;BMP180;10205;49.678;6.560;2024-01-15T08:32:24;98805.00;;;3.60
20092;BMP180;10205;49.678;6.560;2024-01-15T08:34:52;98805.00;;;3.60
20092;BMP180;10205;49.678;6.560;2024-01-15T08:37:19;98806.00;;;3.60
20092;BMP180;10205;49.678;6.560;2024-01-15T08:39:46;98796.00;;;3.60
20092;BMP180;10205;49.678;6.560;2024-01-15T08:42:14;98803.00;;;3.60
20092;BMP180;10205;49.678;6.560;2024-01-15T08:44:41;98799.00;;;3.60
20092;BMP180;10205;49.678;6.560;2024-01-15T08:47:09;98797.00;;;3.60
20092;BMP180;10205;49.678;6.560;2024-01-15T08:49:36;98806.00;;;3.60
20092;BMP180;10205;49.678;6.560;2024-01-15T08:52:03;98801.00;;;3.60
20092;BMP180;10205;49.678;6.560;2024-01-15T08:54:31;98800.00;;;3.60
20092;BMP180;10205;49.678;6.560;2024-01-15T08:56:58;98809.00;;;3.60
20092;BMP180;10205;49.678;6.560;2024-01-15T08:59:26;98798.00;;;3.60
20092;BMP180;10205;49.678;6.560;2024-01-15T09:01:54;98805.00;;;3.60
20092;BMP180;10205;49.678;6.560;2024-01-15T09:04:23;98811.00;;;3.60
20092;BMP180;10205;49.678;6.560;2024-01-15T09:06:50;98804.00;;;3.60
20092;BMP180;10205;49.678;6.560;2024-01-15T09:09:17;98801.00;;;3.60
20092;BMP180;10205;49.678;6.560;2024-01-15T09:11:45;98810.00;;;3.60
20092;BMP180;10205;49.678;6.560;2024-01-15T09:14:12;98806.00;;;3.60
20092;BMP180;10205;49.678;6.560;2024-01-15T09:16:41;98813.00;;;3.60
20092;BMP180;10205;49.678;6.560;2024-01-15T09:19:08;98811.00;;;3.70
20092;BMP180;10205;49.678;6.560;2024-01-15T09:21:35;98815.00;;;3.70
20092;BMP180;10205;49.678;6.560;2024-01-15T09:24:05;98823.00;;;3.70
20092;BMP180;10205;49.678;6.560;2024-01-15T09:26:32;98825.00;;;3.70
20092;BMP180;10205;49.678;6.560;2024-01-15T09:28:59;98812.00;;;3.70
20092;BMP180;10205;49.678;6.560;2024-01-15T09:31:26;98815.00;;;3.70
20092;BMP180;10205;49.678;6.560;2024-01-15T09:33:55;98812.00;;;3.70
20092;BMP180;10205;49.678;6.560;2024-01-15T09:36:24;98786.00;;;3.70
20092;BMP180;10205;49.678;6.560;2024-01-15T09:38:51;98826.00;;;3.70
20092;BMP180;10205;49.678;6.560;2024-01-15T09:41:18;98822.00;;;3.80
20092;BMP180;10205;49.678;6.560;2024-01-15T09:43:46;98821.00;;;3.80
20092;BMP180;10205;49.678;6.560;2024-01-15T09:46:15;98814.00;;;3.80
20092;BMP180;10205;49.678;6.560;2024-01-15T09:48:43;98810.00;;;3.80
20092;BMP180;10205;49.678;6.560;2024-01-15T09:51:11;98810.00;;;3.80
20092;BMP180;10205;49.678;6.560;2024-01-15T09:53:41;98808.00;;;3.80
20092;BMP180;10205;49.678;6.560;2024-01-15T09:56:10;98796.00;;;3.80
20092;BMP180;10205;49.678;6.560;2024-01-15T09:58:39;98821.00;;;3.80
20092;BMP180;10205;49.678;6.560;2024-01-15T10:01:08;98819.00;;;3.80
20092;BMP180;10205;49.678;6.560;2024-01-15T10:03:35;98816.00;;;3.80
20092;BMP180;10205;49.678;6.560;2024-01-15T10:06:04;98811.00;;;3.80
20092;BMP180;10205;49.678;6.560;2024-01-15T10:08:36;98810.00;;;3.80
20092;BMP180;10205;49.678;6.560;2024-01-15T10:11:03;98812.00;;;3.80
20092;BMP180;10205;49.678;6.560;2024-01-15T10:13:31;98815.00;;;3.80
20092;BMP180;10205;49.678;6.560;2024-01-15T10:15:58;98818.00;;;3.80
20092;BMP180;10205;49.678;6.560;2024-01-15T10:18:28;98803.00;;;3.90
20092;BMP180;10205;49.678;6.560;2024-01-15T10:20:57;98809.00;;;3.90
20092;BMP180;10205;49.678;6.560;2024-01-15T10:23:24;98805.00;;;3.90
20092;BMP180;10205;49.678;6.560;2024-01-15T10:25:53;98794.00;;;3.90
20092;BMP180;10205;49.678;6.560;2024-01-15T10:28:20;98795.00;;;3.80
20092;BMP180;10205;49.678;6.560;2024-01-15T10:30:51;98801.00;;;3.90
20092;BMP180;10205;49.678;6.560;2024-01-15T10:33:22;98794.00;;;4.00
20092;BMP180;10205;49.678;6.560;2024-01-15T10:35:54;98766.00;;;4.00
20092;BMP180;10205;49.678;6.560;2024-01-15T10:38:22;98788.00;;;4.00
20092;BMP180;10205;49.678;6.560;2024-01-15T10:40:53;98792.00;;;4.00
20092;BMP180;10205;49.678;6.560;2024-01-15T10:43:21;98770.00;;;4.00
20092;BMP180;10205;49.678;6.560;2024-01-15T10:45:50;98779.00;;;4.00
20092;BMP180;10205;49.678;6.560;2024-01-15T10:48:19;98773.00;;;4.00
20092;BMP180;10205;49.678;6.560;2024-01-15T10:50:47;98761.00;;;4.00
20092;BMP180;10205;49.678;6.560;2024-01-15T10:53:17;98775.00;;;4.00
20092;BMP180;10205;49.678;6.560;2024-01-15T10:55:47;98765.00;;;4.10
20092;BMP180;10205;49.678;6.560;2024-01-15T10:58:16;98775.00;;;4.10
20092;BMP180;10205;49.678;6.560;2024-01-15T11:00:44;98762.00;;;4.10
20092;BMP180;10205;49.678;6.560;2024-01-15T11:03:12;98766.00;;;4.10
20092;BMP180;10205;49.678;6.560;2024-01-15T11:05:42;98776.00;;;4.10
20092;BMP180;10205;49.678;6.560;2024-01-15T11:08:10;98780.00;;;4.20
20092;BMP180;10205;49.678;6.560;2024-01-15T11:10:43;98779.00;;;4.20
20092;BMP180;10205;49.678;6.560;2024-01-15T11:13:19;98777.00;;;4.20
20092;BMP180;10205;49.678;6.560;2024-01-15T11:16:01;98780.00;;;4.20
20092;BMP180;10205;49.678;6.560;2024-01-15T11:18:30;98774.00;;;4.20
20092;BMP180;10205;49.678;6.560;2024-01-15T11:21:20;98770.00;;;4.20
20092;BMP180;10205;49.678;6.560;2024-01-15T11:23:51;98777.00;;;4.20
20092;BMP180;10205;49.678;6.560;2024-01-15T11:26:30;98779.00;;;4.20
20092;BMP180;10205;49.678;6.560;2024-01-15T11:29:00;98781.00;;;4.20
20092;BMP180;10205;49.678;6.560;2024-01-15T11:31:56;98777.00;;;4.30
20092;BMP180;10205;49.678;6.560;2024-01-15T11:34:59;98779.00;;;4.30
20092;BMP180;10205;49.678;6.560;2024-01-15T11:37:29;98786.00;;;4.20
20092;BMP180;10205;49.678;6.560;2024-01-15T11:40:18;98787.00;;;4.30
20092;BMP180;10205;49.678;6.560;2024-01-15T11:42:46;98772.00;;;4.30
20092;BMP180;10205;49.678;6.560;2024-01-15T11:45:18;98761.00;;;4.30
20092;BMP180;10205;49.678;6.560;2024-01-15T11:48:11;98766.00;;;4.40
20092;BMP180;10205;49.678;6.560;2024-01-15T11:50:41;98767.00;;;4.40
20092;BMP180;10205;49.678;6.560;2024-01-15T11:53:17;98771.00;;;4.40
20092;BMP180;10205;49.678;6.560;2024-01-15T11:55:51;98765.00;;;4.40
20092;BMP180;10205;49.678;6.560;2024-01-15T11:58:18;98769.00;;;4.40
20092;BMP180;10205;49.678;6.560;2024-01-15T12:00:48;98747.00;;;4.40
20092;BMP180;10205;49.678;6.560;2024-01-15T12:03:17;98767.00;;;4.40
20092;BMP180;10205;49.678;6.560;2024-01-15T12:05:44;98782.00;;;4.40
20092;BMP180;10205;49.678;6.560;2024-01-15T12:08:11;98768.00;;;4.50
20092;BMP180;10205;49.678;6.560;2024-01-15T12:10:40;98775.00;;;4.50
20092;BMP180;10205;49.678;6.560;2024-01-15T12:13:11;98776.00;;;4.50
20092;BMP180;10205;49.678;6.560;2024-01-15T12:15:39;98769.00;;;4.50
20092;BMP180;10205;49.678;6.560;2024-01-15T12:18:11;98766.00;;;4.60
20092;BMP180;10205;49.678;6.560;2024-01-15T12:20:40;98774.00;;;4.60
20092;BMP180;10205;49.678;6.560;2024-01-15T12:23:08;98770.00;;;4.70
20092;BMP180;10205;49.678;6.560;2024-01-15T12:25:36;98775.00;;;4.70
20092;BMP180;10205;49.678;6.560;2024-01-15T12:28:04;98770.00;;;4.70
20092;BMP180;10205;49.678;6.560;2024-01-15T12:30:34;98776.00;;;4.70
20092;BMP180;10205;49.678;6.560;2024-01-15T12:33:03;98771.00;;;4.80
20092;BMP180;10205;49.678;6.560;2024-01-15T12:35:33;98772.00;;;4.80
20092;BMP180;10205;49.678;6.560;2024-01-15T12:38:01;98756.00;;;4.80
20092;BMP180;10205;49.678;6.560;2024-01-15T12:40:30;98793.00;;;4.90
20092;BMP180;10205;49.678;6.560;2024-01-15T12:42:58;98787.00;;;4.90
20092;BMP180;10205;49.678;6.560;2024-01-15T12:45:25;98767.00;;;4.90
20092;BMP180;10205;49.678;6.560;2024-01-15T12:47:53;98779.00;;;5.00
20092;BMP180;10205;49.678;6.560;2024-01-15T12:50:24;98783.00;;;5.00
20092;BMP180;10205;49.678;6.560;2024-01-15T12:52:53;98757.00;;;5.00
20092;BMP180;10205;49.678;6.560;2024-01-15T12:55:20;98786.00;;;5.00
20092;BMP180;10205;49.678;6.560;2024-01-15T12:57:49;98797.00;;;5.00
20092;BMP180;10205;49.678;6.560;2024-01-15T13:00:20;98786.00;;;5.00
20092;BMP180;10205;49.678;6.560;2024-01-15T13:02:47;98780.00;;;5.00
20092;BMP180;10205;49.678;6.560;2024-01-15T13:05:16;98800.00;;;5.00
20092;BMP180;10205;49.678;6.560;2024-01-15T13:07:44;98805.00;;;5.10
20092;BMP180;10205;49.678;6.560;2024-01-15T13:10:13;98793.00;;;5.10
20092;BMP180;10205;49.678;6.560;2024-01-15T13:12:41;98802.00;;;5.10
20092;BMP180;10205;49.678;6.560;2024-01-15T13:15:09;98805.00;;;5.10
20092;BMP180;10205;49.678;6.560;2024-01-15T13:17:37;98803.00;;;5.20
20092;BMP180;10205;49.678;6.560;2024-01-15T13:20:07;98811.00;;;5.20
20092;BMP180;10205;49.678;6.560;2024-01-15T13:22:35;98823.00;;;5.20
20092;BMP180;10205;49.678;6.560;2024-01-15T13:25:05;98830.00;;;5.20
20092;BMP180;10205;49.678;6.560;2024-01-15T13:27:36;98824.00;;;5.20
20092;BMP180;10205;49.678;6.560;2024-01-15T13:30:05;98817.00;;;5.20
20092;BMP180;10205;49.678;6.560;2024-01-15T13:32:33;98815.00;;;5.20
20092;BMP180;10205;49.678;6.560;2024-01-15T13:35:00;98812.00;;;5.20
20092;BMP180;10205;49.678;6.560;2024-01-15T13:37:28;98827.00;;;5.20
20092;BMP180;10205;49.678;6.560;2024-01-15T13:39:55;98820.00;;;5.20
20092;BMP180;10205;49.678;6.560;2024-01-15T13:42:22;98816.00;;;5.20
20092;BMP180;10205;49.678;6.560;2024-01-15T13:44:50;98833.00;;;5.20
20092;BMP180;10205;49.678;6.560;2024-01-15T13:47:17;98824.00;;;5.20
20092;BMP180;10205;49.678;6.560;2024-01-15T13:49:45;98841.00;;;5.20
20092;BMP180;10205;49.678;6.560;2024-01-15T13:52:12;98844.00;;;5.20
20092;BMP180;10205;49.678;6.560;2024-01-15T13:54:39;98843.00;;;5.20
20092;BMP180;10205;49.678;6.560;2024-01-15T13:57:06;98843.00;;;5.20
20092;BMP180;10205;49.678;6.560;2024-01-15T13:59:33;98862.00;;;5.20
20092;BMP180;10205;49.678;6.560;2024-01-15T14:02:02;98838.00;;;5.20
20092;BMP180;10205;49.678;6.560;2024-01-15T14:04:29;98843.00;;;5.20
20092;BMP180;10205;49.678;6.560;2024-01-15T14:06:56;98843.00;;;5.20
20092;BMP180;10205;49.678;6.560;2024-01-15T14:09:23;98850.00;;;5.30
20092;BMP180;10205;49.678;6.560;2024-01-15T14:11:51;98835.00;;;5.20
20092;BMP180;10205;49.678;6.560;2024-01-15T14:14:19;98839.00;;;5.30
20092;BMP180;10205;49.678;6.560;2024-01-15T14:16:46;98845.00;;;5.30
20092;BMP180;10205;49.678;6.560;2024-01-15T14:19:14;98854.00;;;5.30
20092;BMP180;10205;49.678;6.560;2024-01-15T14:21:41;98853.00;;;5.20
20092;BMP180;10205;49.678;6.560;2024-01-15T14:24:08;98853.00;;;5.30
20092;BMP180;10205;49.678;6.560;2024-01-15T14:26:35;98852.00;;;5.30